Scio, Michigan
Current Conditions -  °F | °C
As of 9:53 PM on Monday 20 Oct 2014 (Local Time) from KARB Reporting Station
Overcast Overcast  
Wind Chill: 12°   Ceiling: 3700
Heat Index: 12°   Visibility: 9mi
Dew Point:   Wind: 9mph
Humidity: 86%   Direction: 310°NW
Pressure: 29.86"   Gusts: NA
Location:  42.3528°N, 83.8974°W
Report Text: KARB 210153Z AUTO 31008KT 9SM BKN037 OVC065 12/09 A2986 RMK AO2 RAE26 SLP111 P0002 T01170094
Loading
Personal Weather Stations






























Interactive Weather Map
Tropical Storm Tracking
New forecast layout! Learn more

10-Day Weather Forecast

Advertisements
Track Severe Weather on mobile